createdAt,value
2022-09-21T00:01:08.402Z,100160.97
2022-09-21T00:02:10.729Z,100162.94
2022-09-21T00:03:14.488Z,100158.84
2022-09-21T00:04:16.930Z,100158.78
2022-09-21T00:05:19.138Z,100163.13
2022-09-21T00:06:22.651Z,100163.94
2022-09-21T00:07:24.916Z,100166.69
2022-09-21T00:08:27.190Z,100160.69
2022-09-21T00:09:29.400Z,100166.78
2022-09-21T00:10:32.571Z,100173.81
2022-09-21T00:11:36.142Z,100164.41
2022-09-21T00:12:41.409Z,100163.56
2022-09-21T00:13:44.180Z,100174.00
2022-09-21T00:14:46.368Z,100166.97
2022-09-21T00:15:48.685Z,100160.84
2022-09-21T00:16:51.015Z,100164.25
2022-09-21T00:17:54.975Z,100166.00
2022-09-21T00:18:57.447Z,100161.50
2022-09-21T00:20:01.517Z,100162.38
2022-09-21T00:21:12.184Z,100159.91
2022-09-21T00:22:14.405Z,100153.06
2022-09-21T00:23:16.798Z,100155.75
2022-09-21T00:24:19.021Z,100156.66
2022-09-21T00:25:21.321Z,100156.66
2022-09-21T00:26:26.502Z,100160.16
2022-09-21T00:27:29.949Z,100155.75
2022-09-21T00:28:32.291Z,100152.19
2022-09-21T00:29:35.355Z,100154.13
2022-09-21T00:30:37.646Z,100156.94
2022-09-21T00:31:40.139Z,100155.09
2022-09-21T00:32:42.432Z,100161.28
2022-09-21T00:33:44.943Z,100163.97
2022-09-21T00:34:47.205Z,100168.28
2022-09-21T00:35:49.429Z,100160.50
2022-09-21T00:36:51.633Z,100164.03
2022-09-21T00:37:53.866Z,100160.50
2022-09-21T00:38:58.691Z,100161.38
2022-09-21T00:40:01.081Z,100155.25
2022-09-21T00:41:04.569Z,100160.38
2022-09-21T00:42:24.791Z,100153.38
2022-09-21T00:43:27.166Z,100156.72
2022-09-21T00:44:33.230Z,100157.50
2022-09-21T00:45:35.712Z,100154.84
2022-09-21T00:46:39.455Z,100164.38
2022-09-21T00:47:44.942Z,100166.03
2022-09-21T00:48:47.265Z,100172.97
2022-09-21T00:49:54.340Z,100168.63
2022-09-21T00:51:02.145Z,100170.34
2022-09-21T00:52:06.106Z,100165.13
2022-09-21T00:53:08.478Z,100162.50
2022-09-21T00:54:19.954Z,100166.00
2022-09-21T00:55:33.713Z,100163.34
2022-09-21T00:56:36.868Z,100165.03
2022-09-21T00:57:39.538Z,100166.81
2022-09-21T00:58:49.500Z,100161.59
2022-09-21T00:59:56.127Z,100159.94
2022-09-21T01:01:00.593Z,100166.09
2022-09-21T01:02:03.265Z,100165.28
2022-09-21T01:03:06.599Z,100162.84
2022-09-21T01:04:10.662Z,100170.84
2022-09-21T01:05:13.758Z,100169.16
2022-09-21T01:06:19.253Z,100169.19
2022-09-21T01:07:28.328Z,100159.50
2022-09-21T01:08:31.422Z,100175.06
2022-09-21T01:09:34.917Z,100169.75
2022-09-21T01:10:51.611Z,100162.81
2022-09-21T01:12:26.633Z,100166.19
2022-09-21T01:13:43.389Z,100161.81
2022-09-21T01:15:19.295Z,100163.56
2022-09-21T01:16:47.100Z,100162.72
2022-09-21T01:18:20.962Z,100160.22
2022-09-21T01:19:41.898Z,100168.97
2022-09-21T01:21:08.251Z,100173.63
2022-09-21T01:22:28.878Z,100171.94
2022-09-21T01:23:55.438Z,100171.13
2022-09-21T01:25:16.023Z,100163.22
2022-09-21T01:26:38.500Z,100164.19
2022-09-21T01:27:43.329Z,100164.22
2022-09-21T01:29:07.043Z,100162.59
2022-09-21T01:30:14.340Z,100165.94
2022-09-21T01:31:24.407Z,100167.59
2022-09-21T01:32:32.279Z,100161.34
2022-09-21T01:33:45.519Z,100161.09
2022-09-21T01:34:59.281Z,100163.13
2022-09-21T01:36:08.757Z,100165.03
2022-09-21T01:37:15.887Z,100168.53
2022-09-21T01:38:24.310Z,100155.50
2022-09-21T01:39:29.067Z,100168.28
2022-09-21T01:40:36.004Z,100164.97
2022-09-21T01:41:42.240Z,100170.31
2022-09-21T01:42:46.900Z,100169.34
2022-09-21T01:43:56.177Z,100176.41
2022-09-21T01:45:03.406Z,100172.97
2022-09-21T01:46:10.711Z,100173.84
2022-09-21T01:47:14.802Z,100176.44
2022-09-21T01:48:22.292Z,100165.19
2022-09-21T01:49:34.683Z,100168.59
2022-09-21T01:50:44.264Z,100170.25
2022-09-21T01:51:52.302Z,100162.41
2022-09-21T01:53:06.318Z,100166.75
2022-09-21T01:54:15.382Z,100159.75
2022-09-21T01:55:30.627Z,100168.50
2022-09-21T01:56:41.642Z,100169.50
2022-09-21T01:57:55.206Z,100174.66
2022-09-21T01:59:18.917Z,100170.31
2022-09-21T02:00:22.243Z,100167.75
2022-09-21T02:01:29.721Z,100160.72
2022-09-21T02:02:41.246Z,100159.78
2022-09-21T02:03:47.359Z,100167.47
2022-09-21T02:04:50.212Z,100162.28
2022-09-21T02:05:53.047Z,100169.16
2022-09-21T02:06:56.080Z,100163.97
2022-09-21T02:07:59.783Z,100164.09
2022-09-21T02:09:02.005Z,100165.06
2022-09-21T02:10:07.574Z,100165.00
2022-09-21T02:11:11.956Z,100152.88
2022-09-21T02:12:18.871Z,100166.91
2022-09-21T02:13:27.500Z,100165.91
2022-09-21T02:14:33.405Z,100169.38
2022-09-21T02:15:58.129Z,100166.91
2022-09-21T02:17:36.585Z,100162.69
2022-09-21T02:19:07.585Z,100149.72
2022-09-21T02:20:20.600Z,100159.22
2022-09-21T02:21:41.568Z,100160.19
2022-09-21T02:22:46.570Z,100156.78
2022-09-21T02:24:01.940Z,100154.16
2022-09-21T02:25:14.016Z,100162.88
2022-09-21T02:26:25.659Z,100152.41
2022-09-21T02:27:44.804Z,100147.13
2022-09-21T02:28:51.599Z,100158.34
2022-09-21T02:30:18.879Z,100146.91
2022-09-21T02:31:31.036Z,100154.00
2022-09-21T02:32:51.365Z,100153.13
2022-09-21T02:34:19.006Z,100149.59
2022-09-21T02:35:30.340Z,100150.38
2022-09-21T02:36:43.302Z,100140.00
2022-09-21T02:38:18.704Z,100156.50
2022-09-21T02:39:38.660Z,100149.56
2022-09-21T02:40:40.837Z,100153.06
2022-09-21T02:41:56.772Z,100145.25
2022-09-21T02:43:10.281Z,100145.31
2022-09-21T02:44:24.951Z,100143.69
2022-09-21T02:45:34.704Z,100155.78
2022-09-21T02:46:49.344Z,100151.38
2022-09-21T02:48:15.406Z,100151.28
2022-09-21T02:49:21.950Z,100151.28
2022-09-21T02:50:32.923Z,100157.28
2022-09-21T02:51:41.635Z,100146.00
2022-09-21T02:52:44.509Z,100150.31
2022-09-21T02:53:50.040Z,100146.81
2022-09-21T02:54:55.023Z,100151.16
2022-09-21T02:56:02.925Z,100143.34
2022-09-21T02:57:06.666Z,100155.50
2022-09-21T02:58:12.090Z,100150.28
2022-09-21T02:59:15.470Z,100154.63
2022-09-21T03:00:17.778Z,100145.03
2022-09-21T03:01:21.736Z,100152.19
2022-09-21T03:02:24.139Z,100148.75
2022-09-21T03:03:26.405Z,100155.69
2022-09-21T03:04:28.826Z,100147.00
2022-09-21T03:05:31.028Z,100144.38
2022-09-21T03:06:34.059Z,100140.97
2022-09-21T03:07:36.377Z,100147.97
2022-09-21T03:08:38.525Z,100147.91
2022-09-21T03:09:40.726Z,100152.19
2022-09-21T03:10:43.543Z,100151.28
2022-09-21T03:11:45.760Z,100152.91
2022-09-21T03:12:48.058Z,100144.19
2022-09-21T03:13:50.415Z,100145.06
2022-09-21T03:14:53.193Z,100145.94
2022-09-21T03:16:03.318Z,100151.09
2022-09-21T03:17:05.761Z,100139.78
2022-09-21T03:18:11.940Z,100149.34
2022-09-21T03:19:14.905Z,100144.97
2022-09-21T03:20:17.046Z,100138.91
2022-09-21T03:21:19.239Z,100149.34
2022-09-21T03:22:22.850Z,100142.44
2022-09-21T03:23:25.695Z,100150.25
2022-09-21T03:24:46.604Z,100152.00
2022-09-21T03:25:52.099Z,100149.47
2022-09-21T03:26:54.354Z,100149.47
2022-09-21T03:27:57.433Z,100154.72
2022-09-21T03:28:59.639Z,100157.50
2022-09-21T03:30:02.582Z,100161.03
2022-09-21T03:31:06.462Z,100159.34
2022-09-21T03:32:08.720Z,100158.47
2022-09-21T03:33:12.818Z,100167.09
2022-09-21T03:34:15.031Z,100163.69
2022-09-21T03:35:21.894Z,100167.22
2022-09-21T03:36:26.730Z,100168.97
2022-09-21T03:37:31.000Z,100165.47
2022-09-21T03:38:33.444Z,100166.38
2022-09-21T03:39:36.641Z,100154.28
2022-09-21T03:40:38.892Z,100168.16
2022-09-21T03:41:41.207Z,100165.50
2022-09-21T03:42:45.140Z,100166.41
2022-09-21T03:43:47.309Z,100167.22
2022-09-21T03:44:49.523Z,100169.00
2022-09-21T03:45:52.104Z,100167.31
2022-09-21T03:46:54.269Z,100168.19
2022-09-21T03:47:57.954Z,100174.28
2022-09-21T03:49:00.607Z,100165.63
2022-09-21T03:50:05.600Z,100167.34
2022-09-21T03:51:11.426Z,100165.56
2022-09-21T03:52:13.649Z,100169.13
2022-09-21T03:53:16.334Z,100164.75
2022-09-21T03:54:18.534Z,100157.88
2022-09-21T03:55:21.277Z,100158.66
2022-09-21T03:56:23.900Z,100165.56
2022-09-21T03:57:26.117Z,100169.06
2022-09-21T03:58:28.295Z,100169.06
2022-09-21T03:59:30.491Z,100169.06
2022-09-21T04:00:33.079Z,100168.25
2022-09-21T04:01:36.201Z,100170.00
2022-09-21T04:02:40.488Z,100161.31
2022-09-21T04:03:42.833Z,100163.06
2022-09-21T04:04:44.994Z,100163.09
2022-09-21T04:05:47.237Z,100166.53
2022-09-21T04:06:49.489Z,100163.09
2022-09-21T04:07:51.685Z,100173.47
2022-09-21T04:08:55.160Z,100173.50
2022-09-21T04:09:57.399Z,100170.84
2022-09-21T04:11:00.031Z,100169.06
2022-09-21T04:12:02.616Z,100171.59
2022-09-21T04:13:05.598Z,100170.69
2022-09-21T04:14:08.052Z,100167.22
2022-09-21T04:15:15.593Z,100171.53
2022-09-21T04:16:17.947Z,100172.47
2022-09-21T04:17:20.250Z,100169.06
2022-09-21T04:18:22.427Z,100173.38
2022-09-21T04:19:24.614Z,100174.22
2022-09-21T04:20:26.870Z,100169.91
2022-09-21T04:21:29.948Z,100175.97
2022-09-21T04:22:32.161Z,100178.56
2022-09-21T04:23:35.083Z,100169.00
2022-09-21T04:24:39.434Z,100173.28
2022-09-21T04:25:41.844Z,100174.13
2022-09-21T04:26:44.058Z,100175.00
2022-09-21T04:27:46.525Z,100161.09
2022-09-21T04:28:49.321Z,100171.50
2022-09-21T04:29:51.681Z,100173.31
2022-09-21T04:30:55.566Z,100176.88
2022-09-21T04:31:58.104Z,100175.16
2022-09-21T04:33:00.356Z,100175.16
2022-09-21T04:34:02.532Z,100169.13
2022-09-21T04:35:05.130Z,100173.44
2022-09-21T04:36:07.542Z,100176.88
2022-09-21T04:37:13.352Z,100176.00
2022-09-21T04:38:15.614Z,100176.03
2022-09-21T04:39:17.790Z,100176.06
2022-09-21T04:40:19.969Z,100182.97
2022-09-21T04:41:22.159Z,100169.97
2022-09-21T04:42:24.537Z,100180.28
2022-09-21T04:43:26.770Z,100183.72
2022-09-21T04:44:30.107Z,100177.63
2022-09-21T04:45:32.466Z,100183.72
2022-09-21T04:46:34.688Z,100188.09
2022-09-21T04:47:36.938Z,100184.69
2022-09-21T04:48:39.504Z,100189.09
2022-09-21T04:49:41.699Z,100190.81
2022-09-21T04:50:44.577Z,100202.13
2022-09-21T04:51:46.767Z,100185.59
2022-09-21T04:52:48.994Z,100194.28
2022-09-21T04:53:51.556Z,100198.59
2022-09-21T04:54:53.732Z,100189.97
2022-09-21T04:55:56.245Z,100193.38
2022-09-21T04:56:58.483Z,100193.38
2022-09-21T04:58:00.726Z,100196.00
2022-09-21T04:59:02.946Z,100200.34
2022-09-21T05:00:06.266Z,100196.00
2022-09-21T05:01:08.545Z,100185.56
2022-09-21T05:02:10.769Z,100191.59
2022-09-21T05:03:12.964Z,100195.03
2022-09-21T05:04:15.428Z,100192.50
2022-09-21T05:05:17.649Z,100194.19
2022-09-21T05:06:19.807Z,100195.91
2022-09-21T05:07:22.130Z,100195.00
2022-09-21T05:08:44.747Z,100193.22
2022-09-21T05:10:04.947Z,100199.31
2022-09-21T05:11:08.939Z,100207.88
2022-09-21T05:12:11.194Z,100195.75
2022-09-21T05:13:17.839Z,100197.53
2022-09-21T05:14:21.873Z,100199.25
2022-09-21T05:15:24.173Z,100201.78
2022-09-21T05:16:26.709Z,100200.06
2022-09-21T05:17:29.349Z,100194.06
2022-09-21T05:18:31.970Z,100198.38
2022-09-21T05:19:34.182Z,100214.13
2022-09-21T05:20:36.379Z,100209.69
2022-09-21T05:21:38.623Z,100211.38
2022-09-21T05:22:41.021Z,100207.06
2022-09-21T05:23:43.289Z,100202.69
2022-09-21T05:24:45.533Z,100207.06
2022-09-21T05:25:47.795Z,100211.38
2022-09-21T05:26:50.025Z,100213.91
2022-09-21T05:27:52.216Z,100218.22
2022-09-21T05:28:54.753Z,100219.09
2022-09-21T05:29:57.236Z,100214.69
2022-09-21T05:31:18.448Z,100216.41
2022-09-21T05:32:28.060Z,100214.66
2022-09-21T05:33:32.431Z,100222.41
2022-09-21T05:35:09.619Z,100217.81
2022-09-21T05:36:39.626Z,100210.53
2022-09-21T05:37:50.926Z,100196.16
2022-09-21T05:38:53.441Z,100193.53
2022-09-21T05:39:55.949Z,100210.91
2022-09-21T05:40:58.399Z,100210.16
2022-09-21T05:42:01.124Z,100209.13
2022-09-21T05:43:03.750Z,100205.38
2022-09-21T05:44:06.379Z,100210.09
2022-09-21T05:45:14.120Z,100219.47
2022-09-21T05:46:40.096Z,100212.53
2022-09-21T05:47:56.438Z,100219.06
2022-09-21T05:49:27.991Z,100218.28
2022-09-21T05:50:35.976Z,100226.09
2022-09-21T05:51:43.720Z,100231.31
2022-09-21T05:53:06.184Z,100233.63
2022-09-21T05:54:23.778Z,100240.63
2022-09-21T05:55:40.916Z,100239.59
2022-09-21T05:56:54.804Z,100242.56
2022-09-21T05:58:03.156Z,100236.97
2022-09-21T05:59:19.409Z,100241.97
2022-09-21T06:00:23.294Z,100242.75
2022-09-21T06:01:39.760Z,100249.28
2022-09-21T06:02:55.776Z,100243.25
2022-09-21T06:04:03.114Z,100261.00
2022-09-21T06:05:11.815Z,100258.56
2022-09-21T06:06:14.167Z,100255.72
2022-09-21T06:07:16.586Z,100262.25
2022-09-21T06:08:18.926Z,100257.09
2022-09-21T06:09:21.321Z,100260.59
2022-09-21T06:10:25.097Z,100257.09
2022-09-21T06:11:27.549Z,100252.84
2022-09-21T06:12:29.791Z,100259.66
2022-09-21T06:13:32.219Z,100254.34
2022-09-21T06:14:34.485Z,100251.53
2022-09-21T06:15:40.162Z,100253.19
2022-09-21T06:16:43.278Z,100249.84
2022-09-21T06:17:45.623Z,100246.09
2022-09-21T06:18:48.057Z,100247.88
2022-09-21T06:19:50.466Z,100259.41
2022-09-21T06:20:52.684Z,100250.91
2022-09-21T06:21:55.022Z,100258.66
2022-09-21T06:23:04.430Z,100265.72
2022-09-21T06:24:06.960Z,100254.34
2022-09-21T06:25:09.515Z,100257.19
2022-09-21T06:26:12.071Z,100264.00
2022-09-21T06:27:14.505Z,100250.94
2022-09-21T06:28:16.819Z,100250.91
2022-09-21T06:29:23.486Z,100261.03
2022-09-21T06:30:25.824Z,100253.38
2022-09-21T06:31:28.216Z,100253.94
2022-09-21T06:32:31.636Z,100246.09
2022-09-21T06:33:35.695Z,100249.44
2022-09-21T06:34:38.105Z,100250.28
2022-09-21T06:35:40.553Z,100258.25
2022-09-21T06:36:42.954Z,100250.38
2022-09-21T06:37:45.551Z,100250.22
2022-09-21T06:38:47.960Z,100250.22
2022-09-21T06:39:50.329Z,100242.25
2022-09-21T06:40:53.593Z,100244.63
2022-09-21T06:41:56.494Z,100246.38
2022-09-21T06:43:00.892Z,100248.19
2022-09-21T06:44:03.393Z,100247.19
2022-09-21T06:45:06.328Z,100244.66
2022-09-21T06:46:08.799Z,100250.16
2022-09-21T06:47:11.167Z,100246.56
2022-09-21T06:48:13.508Z,100264.03
2022-09-21T06:49:15.803Z,100238.06
2022-09-21T06:50:20.511Z,100250.31
2022-09-21T06:51:24.129Z,100250.91
2022-09-21T06:52:26.463Z,100251.44
2022-09-21T06:53:30.269Z,100245.19
2022-09-21T06:54:32.654Z,100255.44
2022-09-21T06:55:35.170Z,100250.19
2022-09-21T06:56:38.288Z,100243.69
2022-09-21T06:57:40.741Z,100238.41
2022-09-21T06:58:43.157Z,100245.03
2022-09-21T06:59:45.975Z,100242.06
2022-09-21T07:00:50.273Z,100255.91
2022-09-21T07:01:55.805Z,100248.28
2022-09-21T07:02:58.877Z,100251.66
2022-09-21T07:04:01.357Z,100256.19
2022-09-21T07:05:04.826Z,100245.47
2022-09-21T07:06:08.512Z,100253.81
2022-09-21T07:07:11.170Z,100249.31
2022-09-21T07:11:00.063Z,100236.41
2022-09-21T07:12:02.564Z,100249.53
2022-09-21T07:13:05.922Z,100245.91
2022-09-21T07:14:09.090Z,100255.13
2022-09-21T07:15:11.900Z,100248.72
2022-09-21T07:16:15.229Z,100246.56
2022-09-21T07:17:17.581Z,100247.94
2022-09-21T07:18:20.084Z,100247.31
2022-09-21T07:19:22.919Z,100247.88
2022-09-21T07:20:27.710Z,100248.00
2022-09-21T07:21:31.175Z,100249.31
2022-09-21T07:22:34.722Z,100244.16
2022-09-21T07:23:37.730Z,100246.81
2022-09-21T07:24:40.796Z,100244.94
2022-09-21T07:25:49.477Z,100248.78
2022-09-21T07:26:52.974Z,100247.31
2022-09-21T07:27:55.670Z,100252.53
2022-09-21T07:28:58.336Z,100253.16
2022-09-21T07:30:01.125Z,100252.06
2022-09-21T07:31:15.723Z,100247.56
2022-09-21T07:32:21.571Z,100248.09
2022-09-21T07:33:25.326Z,100254.25
2022-09-21T07:34:27.747Z,100248.09
2022-09-21T07:35:30.116Z,100249.22
2022-09-21T07:36:32.989Z,100250.28
2022-09-21T07:37:36.055Z,100249.78
2022-09-21T07:38:41.038Z,100255.13
2022-09-21T07:39:43.647Z,100248.78
2022-09-21T07:40:46.743Z,100249.16
2022-09-21T07:41:49.212Z,100253.91
2022-09-21T07:42:51.472Z,100247.69
2022-09-21T07:43:54.157Z,100256.38
2022-09-21T07:45:03.910Z,100255.78
2022-09-21T07:46:10.136Z,100248.41
2022-09-21T07:47:13.668Z,100258.88
2022-09-21T07:48:16.024Z,100257.75
2022-09-21T07:49:18.409Z,100256.38
2022-09-21T07:50:21.603Z,100262.69
2022-09-21T07:51:24.852Z,100246.75
2022-09-21T07:52:28.070Z,100257.94
2022-09-21T07:53:31.941Z,100253.03
2022-09-21T07:54:35.483Z,100263.38
2022-09-21T07:55:37.916Z,100255.91
2022-09-21T07:56:40.216Z,100258.00
2022-09-21T07:58:01.482Z,100249.91
2022-09-21T07:59:07.388Z,100260.69
2022-09-21T08:00:10.114Z,100257.03
2022-09-21T08:01:15.610Z,100260.16
2022-09-21T08:02:18.050Z,100264.03
2022-09-21T08:03:20.457Z,100257.81
2022-09-21T08:04:22.770Z,100255.81
2022-09-21T08:05:25.093Z,100251.97
2022-09-21T08:06:33.428Z,100258.50
2022-09-21T08:07:35.744Z,100256.22
2022-09-21T08:08:39.433Z,100262.16
2022-09-21T08:09:41.906Z,100262.00
2022-09-21T08:10:44.254Z,100259.88
2022-09-21T08:11:47.093Z,100260.75
2022-09-21T08:12:50.036Z,100259.22
2022-09-21T08:13:54.563Z,100247.63
2022-09-21T08:14:57.057Z,100251.31
2022-09-21T08:16:00.898Z,100262.59
2022-09-21T08:17:04.507Z,100262.13
2022-09-21T08:18:07.173Z,100252.81
2022-09-21T08:19:09.592Z,100257.88
2022-09-21T08:20:11.967Z,100262.84
2022-09-21T08:21:15.250Z,100263.06
2022-09-21T08:22:17.548Z,100263.50
2022-09-21T08:23:20.028Z,100266.25
2022-09-21T08:24:22.299Z,100268.66
2022-09-21T08:25:24.681Z,100262.94
2022-09-21T08:26:27.883Z,100255.50
2022-09-21T08:27:30.453Z,100256.59
2022-09-21T08:28:36.410Z,100258.28
2022-09-21T08:29:39.362Z,100257.41
2022-09-21T08:30:42.679Z,100261.34
2022-09-21T08:31:46.739Z,100253.25
2022-09-21T08:32:51.722Z,100261.47
2022-09-21T08:33:57.830Z,100249.88
2022-09-21T08:35:01.060Z,100261.47
2022-09-21T08:36:04.522Z,100259.19
2022-09-21T08:37:07.384Z,100258.91
2022-09-21T08:38:12.731Z,100252.44
2022-09-21T08:39:15.302Z,100256.75
2022-09-21T08:40:20.455Z,100259.13
2022-09-21T08:41:50.792Z,100257.94
2022-09-21T08:43:03.669Z,100264.34
2022-09-21T08:44:20.162Z,100260.66
2022-09-21T08:45:32.098Z,100259.53
2022-09-21T08:46:38.342Z,100259.75
2022-09-21T08:47:49.001Z,100256.84
2022-09-21T08:49:19.257Z,100252.63
2022-09-21T08:50:34.136Z,100255.84
2022-09-21T08:51:48.548Z,100267.13
2022-09-21T08:52:54.377Z,100263.63
2022-09-21T08:54:03.707Z,100253.00
2022-09-21T08:55:17.741Z,100251.50
2022-09-21T08:56:22.169Z,100250.81
2022-09-21T08:57:30.522Z,100256.03
2022-09-21T08:58:33.099Z,100257.81
2022-09-21T08:59:46.252Z,100251.66
2022-09-21T09:00:58.022Z,100246.97
2022-09-21T09:02:33.946Z,100245.41
2022-09-21T09:03:39.381Z,100258.00
2022-09-21T09:05:04.283Z,100258.13
2022-09-21T09:06:29.769Z,100242.06
2022-09-21T09:08:00.861Z,100250.34
2022-09-21T09:09:36.158Z,100259.22
2022-09-21T09:11:03.905Z,100239.94
2022-09-21T09:12:42.825Z,100249.13
2022-09-21T09:13:56.811Z,100236.72
2022-09-21T09:15:23.924Z,100258.84
2022-09-21T09:16:58.928Z,100248.75
2022-09-21T09:18:22.769Z,100257.56
2022-09-21T09:19:49.042Z,100255.72
2022-09-21T09:21:22.522Z,100257.00
2022-09-21T09:22:34.484Z,100250.03
2022-09-21T09:23:53.760Z,100252.22
2022-09-21T09:25:03.297Z,100249.06
2022-09-21T09:26:11.934Z,100243.31
2022-09-21T09:27:27.440Z,100247.31
2022-09-21T09:28:40.281Z,100242.53
2022-09-21T09:30:03.658Z,100244.81
2022-09-21T09:31:19.391Z,100246.09
2022-09-21T09:32:41.113Z,100254.22
2022-09-21T09:33:55.485Z,100248.69
2022-09-21T09:35:24.580Z,100252.47
2022-09-21T09:36:57.233Z,100239.78
2022-09-21T09:38:05.909Z,100245.03
2022-09-21T09:39:13.538Z,100250.69
2022-09-21T09:40:26.520Z,100238.72
2022-09-21T09:41:56.413Z,100235.94
2022-09-21T09:43:13.929Z,100241.91
2022-09-21T09:44:21.784Z,100231.53
2022-09-21T09:45:35.873Z,100230.81
2022-09-21T09:47:02.623Z,100239.94
2022-09-21T09:48:20.672Z,100247.38
2022-09-21T09:49:53.933Z,100227.25
2022-09-21T09:50:56.217Z,100234.50
2022-09-21T09:51:58.753Z,100231.59
2022-09-21T09:53:20.461Z,100229.84
2022-09-21T09:54:26.247Z,100237.13
2022-09-21T09:55:37.840Z,100225.38
2022-09-21T09:56:40.157Z,100227.19
2022-09-21T09:57:42.825Z,100235.66
2022-09-21T09:58:53.279Z,100222.72
2022-09-21T10:00:04.706Z,100222.41
2022-09-21T10:01:39.037Z,100226.44
2022-09-21T10:02:55.350Z,100224.63
2022-09-21T10:04:14.888Z,100222.41
2022-09-21T10:05:31.102Z,100226.63
2022-09-21T10:06:33.774Z,100219.69
2022-09-21T10:07:45.881Z,100221.16
2022-09-21T10:08:48.365Z,100209.09
2022-09-21T10:09:50.584Z,100225.81
2022-09-21T10:10:52.966Z,100208.88
2022-09-21T10:11:59.981Z,100221.94
2022-09-21T10:13:18.964Z,100226.94
2022-09-21T10:14:23.918Z,100217.75
2022-09-21T10:15:26.168Z,100209.16
2022-09-21T10:16:28.431Z,100204.88
2022-09-21T10:17:30.969Z,100210.59
2022-09-21T10:18:39.983Z,100215.84
2022-09-21T10:19:42.766Z,100215.53
2022-09-21T10:20:54.805Z,100209.72
2022-09-21T10:21:59.362Z,100204.28
2022-09-21T10:23:01.656Z,100203.13
2022-09-21T10:24:25.358Z,100204.59
2022-09-21T10:25:27.742Z,100207.00
2022-09-21T10:26:52.933Z,100211.88
2022-09-21T10:27:56.149Z,100203.53
2022-09-21T10:29:00.760Z,100201.81
2022-09-21T10:30:03.340Z,100197.19
2022-09-21T10:31:29.824Z,100201.19
2022-09-21T10:32:32.173Z,100205.25
2022-09-21T10:33:42.074Z,100206.31
2022-09-21T10:35:10.400Z,100200.06
2022-09-21T10:36:27.328Z,100203.47
2022-09-21T10:37:37.081Z,100212.38
2022-09-21T10:38:42.035Z,100209.09
2022-09-21T10:39:47.086Z,100211.28
2022-09-21T10:40:50.359Z,100210.91
2022-09-21T10:41:57.990Z,100203.72
2022-09-21T10:43:00.476Z,100207.53
2022-09-21T10:44:02.807Z,100201.09
2022-09-21T10:45:14.980Z,100195.69
2022-09-21T10:46:17.994Z,100195.81
2022-09-21T10:47:25.405Z,100202.34
2022-09-21T10:48:28.521Z,100189.94
2022-09-21T10:49:31.375Z,100194.91
2022-09-21T10:50:36.302Z,100197.56
2022-09-21T10:51:39.695Z,100184.31
2022-09-21T10:52:45.943Z,100201.38
2022-09-21T10:53:53.757Z,100200.88
2022-09-21T10:54:57.225Z,100196.31
2022-09-21T10:56:21.910Z,100189.47
2022-09-21T10:57:26.635Z,100201.47
2022-09-21T10:58:29.900Z,100198.84
2022-09-21T10:59:33.676Z,100198.50
2022-09-21T11:00:43.858Z,100196.97
2022-09-21T11:01:48.965Z,100198.22
2022-09-21T11:02:51.784Z,100206.16
2022-09-21T11:04:00.642Z,100196.31
2022-09-21T11:05:19.725Z,100195.44
2022-09-21T11:06:28.235Z,100188.31
2022-09-21T11:08:06.126Z,100196.50
2022-09-21T11:09:34.782Z,100202.41
2022-09-21T11:10:44.546Z,100198.91
2022-09-21T11:12:07.053Z,100190.28
2022-09-21T11:13:09.946Z,100202.84
2022-09-21T11:14:44.974Z,100201.34
2022-09-21T11:16:10.321Z,100200.22
2022-09-21T11:17:29.410Z,100204.84
2022-09-21T11:18:49.944Z,100198.94
2022-09-21T11:19:55.762Z,100199.88
2022-09-21T11:21:10.315Z,100194.81
2022-09-21T11:22:20.058Z,100190.22
2022-09-21T11:23:36.232Z,100189.94
2022-09-21T11:24:59.394Z,100180.72
2022-09-21T11:26:18.566Z,100183.09
2022-09-21T11:27:28.984Z,100179.91
2022-09-21T11:28:43.187Z,100168.44
2022-09-21T11:30:07.162Z,100180.56
2022-09-21T11:31:24.227Z,100180.00
2022-09-21T11:32:29.126Z,100171.63
2022-09-21T11:33:49.527Z,100176.41
2022-09-21T11:34:57.459Z,100178.09
2022-09-21T11:36:29.810Z,100176.66
2022-09-21T11:37:50.201Z,100176.16
2022-09-21T11:39:18.223Z,100165.38
2022-09-21T11:40:41.593Z,100169.66
2022-09-21T11:42:03.723Z,100161.78
2022-09-21T11:43:20.592Z,100152.56
2022-09-21T11:44:39.198Z,100163.50
2022-09-21T11:46:12.180Z,100151.44
2022-09-21T11:47:51.322Z,100161.72
2022-09-21T11:49:33.851Z,100148.75
2022-09-21T11:50:56.483Z,100160.28
2022-09-21T11:52:26.413Z,100150.25
2022-09-21T11:53:46.883Z,100155.66
2022-09-21T11:55:07.050Z,100147.66
2022-09-21T11:56:31.328Z,100154.00
2022-09-21T11:57:38.634Z,100149.34
2022-09-21T11:59:18.185Z,100144.25
2022-09-21T12:00:22.065Z,100150.63
2022-09-21T12:01:36.541Z,100150.50
2022-09-21T12:02:41.466Z,100148.09
2022-09-21T12:04:14.471Z,100144.03
2022-09-21T12:05:23.402Z,100157.75
2022-09-21T12:06:43.335Z,100148.41
2022-09-21T12:07:51.527Z,100153.22
2022-09-21T12:09:31.319Z,100143.00
2022-09-21T12:10:56.115Z,100149.94
2022-09-21T12:12:06.726Z,100146.13
2022-09-21T12:13:43.926Z,100145.44
2022-09-21T12:15:02.502Z,100142.59
2022-09-21T12:16:29.806Z,100148.56
2022-09-21T12:17:49.850Z,100140.00
2022-09-21T12:19:05.544Z,100134.78
2022-09-21T12:20:21.826Z,100141.03
2022-09-21T12:21:35.055Z,100128.16
2022-09-21T12:22:44.307Z,100134.13
2022-09-21T12:24:02.284Z,100141.00
2022-09-21T12:25:32.466Z,100141.06
2022-09-21T12:26:41.575Z,100132.63
2022-09-21T12:27:52.355Z,100142.03
2022-09-21T12:29:00.774Z,100136.38
2022-09-21T12:30:20.871Z,100139.28
2022-09-21T12:31:29.564Z,100143.94
2022-09-21T12:32:37.711Z,100135.50
2022-09-21T12:33:48.375Z,100127.81
2022-09-21T12:34:56.630Z,100132.06
2022-09-21T12:36:08.572Z,100137.66
2022-09-21T12:38:01.775Z,100132.03
2022-09-21T12:39:22.221Z,100130.34
2022-09-21T12:40:47.991Z,100130.09
2022-09-21T12:41:56.442Z,100122.69
2022-09-21T12:43:07.179Z,100129.25
2022-09-21T12:44:16.718Z,100123.69
2022-09-21T12:45:38.732Z,100127.34
2022-09-21T12:46:48.206Z,100120.13
2022-09-21T12:48:02.700Z,100124.00
2022-09-21T12:49:14.288Z,100120.59
2022-09-21T12:50:22.785Z,100116.63
2022-09-21T17:43:33.180Z,100050.78
2022-09-21T17:45:01.660Z,100051.22
2022-09-21T17:46:14.392Z,100054.91
2022-09-21T17:47:27.794Z,100055.78
2022-09-21T17:48:33.915Z,100052.47
2022-09-21T17:49:37.565Z,100054.19
2022-09-21T17:50:39.874Z,100055.09
2022-09-21T17:52:00.866Z,100053.56
2022-09-21T17:53:21.948Z,100052.25
2022-09-21T17:54:24.403Z,100061.25
2022-09-21T17:55:26.850Z,100063.03
2022-09-21T17:56:32.855Z,100055.47
2022-09-21T17:57:40.990Z,100055.75
2022-09-21T17:58:56.968Z,100057.59
2022-09-21T18:00:12.251Z,100065.88